Elkhorn, NE (68022)

2:20 PM CST on March 03, 2015 (GMT -0600)
Elkhorn High School | Change Station
CLOSE
Current Station
Personal Weather Station
Location: Nebraska, NE
Elevation: 1270 ft
Nearby Weather Stations

Elev 1270 ft 41.27 °N, 96.23 °W | Updated 7 minutes ago

Overcast
Overcast
31.4 °F
Feels Like 20 °F
N
17.0
Wind Variable Wind from NNW
Gusts 27.0 mph

Today
High -- | Low -- °F
--% Chance of Precip.
Yesterday
High -- | Low -- °F
Precip. -- in
6:56 AM 6:17 PM
Waxing Gibbous, 97% visible
Pressure 29.88 in
Visibility 10.0 miles
Clouds Overcast 2900 ft
Windchill 20 °F
Dew Point 21 °F
Humidity 66%
Rainfall 0.00 in
Snow Depth Not available.
UV 2 out of 12
Pollen 2.20 out of 12
Air Quality Not available.
Flu Activity Not available.
METAR KMLE 031955Z AUTO 33018G24KT 310V010 10SM OVC029 02/M06 A2988 RMK AO2 T00151058

More Conditions Fewer Conditions

Pressure 29.88 in
Visibility 10.0 miles
Clouds Overcast 2900 ft
Windchill 20 °F
Dew Point 21 °F
Humidity 66%
Rainfall 0.00 in
Snow Depth Not available.
UV 2 out of 12
Pollen 2.20 out of 12
Air Quality Not available.
Flu Activity Not available.
METAR KMLE 031955Z AUTO 33018G24KT 310V010 10SM OVC029 02/M06 A2988 RMK AO2 T00151058

More Conditions Fewer Conditions

10-Day Weather Forecast

Almanac

Astronomy

Mar. 03, 2015 Rise Set
Actual Time
Civil Twilight
Nautical Twilight
Astronomical Twilight
Moon
Length of Visible Light
Length of Day
Tomorrow will be .
, % of the Moon is Illuminated

Today's Extremes

State Highs State Lows

Community

WunderPhotos

Upload Photos

1,802,245 photos uploaded!

WunderBlogs® & News

Nearby

Air Quality

  Air Quality AQ Index Pollutant
Not available.

Snow Depth

Station Depth Elevation

Earthquake Activity

City Distance Mag. Time & Date
Minimum magnitude displayed is 2.5.

Coastal Water Temperatures

Place Temperature

Nearby Weather Stations